| time (UTC) | temp F | wind direction | speed MPH | gust MPH | rain 1hr in | rain 24hr in | rain mn in | humidity % | barometer mb |
| 20260507182044 | 55 | 284 | 6.0 | 15.0 | 0.00 | 0.40 | 0.00 | 39 | 1004.8 |
| 20260507181602 | 55 | 255 | 6.0 | 17.0 | 0.00 | 0.40 | 0.00 | 39 | 1004.7 |
| 20260507181042 | 55 | 278 | 6.0 | 17.0 | 0.00 | 0.40 | 0.00 | 38 | 1004.8 |
| 20260507180543 | 55 | 270 | 6.0 | 14.0 | 0.00 | 0.40 | 0.00 | 39 | 1004.9 |
| 20260507180053 | 56 | 278 | 7.0 | 14.0 | 0.00 | 0.40 | 0.00 | 39 | 1005.0 |
| 20260507175545 | 57 | 5 | 7.0 | 14.0 | 0.00 | 0.49 | 0.00 | 38 | 1004.9 |
| 20260507175042 | 58 | 274 | 5.0 | 21.0 | 0.00 | 0.49 | 0.00 | 40 | 1005.0 |
| 20260507174555 | 57 | 282 | 7.0 | 21.0 | 0.00 | 0.49 | 0.00 | 40 | 1004.8 |
| 20260507174044 | 57 | 269 | 6.0 | 17.0 | 0.00 | 0.49 | 0.00 | 41 | 1004.9 |
| 20260507173543 | 58 | 288 | 6.0 | 17.0 | 0.00 | 0.49 | 0.00 | 41 | 1004.9 |
| 20260507173050 | 57 | 320 | 4.0 | 14.0 | 0.00 | 0.49 | 0.00 | 41 | 1004.9 |
| 20260507172542 | 56 | 277 | 5.0 | 16.0 | 0.00 | 0.49 | 0.00 | 40 | 1005.0 |
| 20260507172042 | 55 | 307 | 10.0 | 16.0 | 0.00 | 0.49 | 0.00 | 41 | 1005.0 |
| 20260507171555 | 56 | 293 | 7.0 | 16.0 | 0.00 | 0.49 | 0.00 | 40 | 1005.0 |
| 20260507171043 | 56 | 277 | 7.0 | 15.0 | 0.00 | 0.49 | 0.00 | 41 | 1005.2 |
| 20260507170543 | 56 | 313 | 6.0 | 16.0 | 0.00 | 0.49 | 0.00 | 43 | 1005.2 |
| 20260507170054 | 55 | 313 | 8.0 | 16.0 | 0.00 | 0.49 | 0.00 | 40 | 1005.1 |
| 20260507165542 | 56 | 309 | 6.0 | 16.0 | 0.00 | 0.52 | 0.00 | 45 | 1005.3 |
| 20260507165042 | 55 | 332 | 10.0 | 20.0 | 0.00 | 0.52 | 0.00 | 43 | 1005.3 |
| 20260507164553 | 55 | 295 | 7.0 | 20.0 | 0.00 | 0.52 | 0.00 | 45 | 1005.3 |
| 20260507164049 | 55 | 320 | 10.0 | 17.0 | 0.00 | 0.52 | 0.00 | 43 | 1005.4 |
| 20260507163544 | 55 | 321 | 6.0 | 17.0 | 0.00 | 0.52 | 0.00 | 49 | 1005.3 |
| 20260507163057 | 54 | 301 | 8.0 | 17.0 | 0.00 | 0.52 | 0.00 | 48 | 1005.6 |
| 20260507162542 | 53 | 306 | 10.0 | 17.0 | 0.00 | 0.52 | 0.00 | 49 | 1005.5 |
| 20260507162044 | 53 | 249 | 8.0 | 16.0 | 0.00 | 0.52 | 0.00 | 54 | 1005.7 |
| 20260507161550 | 53 | 314 | 5.0 | 16.0 | 0.00 | 0.52 | 0.00 | 53 | 1005.7 |
| 20260507161042 | 53 | 316 | 8.0 | 16.0 | 0.00 | 0.52 | 0.00 | 53 | 1005.8 |
| 20260507160542 | 53 | 300 | 4.0 | 9.0 | 0.00 | 0.52 | 0.00 | 59 | 1005.9 |
| 20260507160055 | 51 | 310 | 4.0 | 10.0 | 0.00 | 0.52 | 0.00 | 62 | 1006.1 |
| 20260507155543 | 51 | 307 | 5.0 | 15.0 | 0.00 | 0.52 | 0.00 | 61 | 1006.1 |
| 20260507155042 | 51 | 328 | 6.0 | 15.0 | 0.00 | 0.52 | 0.00 | 59 | 1006.1 |
| 20260507154559 | 51 | 326 | 5.0 | 14.0 | 0.00 | 0.52 | 0.00 | 59 | 1006.1 |
| 20260507154043 | 52 | 330 | 6.0 | 14.0 | 0.00 | 0.52 | 0.00 | 58 | 1006.1 |
| 20260507153542 | 52 | 314 | 5.0 | 10.0 | 0.00 | 0.52 | 0.00 | 64 | 1006.1 |
| 20260507153058 | 51 | 307 | 4.0 | 9.0 | 0.00 | 0.52 | 0.00 | 71 | 1006.1 |
| 20260507152543 | 49 | 293 | 2.0 | 9.0 | 0.00 | 0.52 | 0.00 | 72 | 1006.2 |
| 20260507152041 | 48 | 302 | 3.0 | 10.0 | 0.00 | 0.52 | 0.00 | 76 | 1006.4 |
| 20260507151550 | 48 | 289 | 2.0 | 11.0 | 0.00 | 0.52 | 0.00 | 77 | 1006.5 |
| 20260507151043 | 49 | 311 | 5.0 | 15.0 | 0.00 | 0.52 | 0.00 | 73 | 1006.5 |
| 20260507150543 | 49 | 335 | 7.0 | 15.0 | 0.00 | 0.52 | 0.00 | 70 | 1006.5 |
| 20260507150050 | 49 | 343 | 8.0 | 14.0 | 0.00 | 0.52 | 0.00 | 68 | 1006.5 |
| 20260507145548 | 50 | 338 | 8.0 | 14.0 | 0.00 | 0.52 | 0.00 | 66 | 1006.4 |
| 20260507145042 | 50 | 330 | 5.0 | 12.0 | 0.00 | 0.52 | 0.00 | 68 | 1006.3 |
| 20260507144553 | 50 | 317 | 6.0 | 12.0 | 0.00 | 0.52 | 0.00 | 67 | 1006.3 |
| 20260507144043 | 50 | 295 | 4.0 | 8.0 | 0.00 | 0.52 | 0.00 | 66 | 1006.4 |
| 20260507143542 | 50 | 2 | 2.0 | 8.0 | 0.00 | 0.52 | 0.00 | 68 | 1006.2 |
| 20260507143050 | 50 | 304 | 1.0 | 6.0 | 0.00 | 0.52 | 0.00 | 71 | 1006.2 |
| 20260507142545 | 49 | 293 | 2.0 | 6.0 | 0.00 | 0.52 | 0.00 | 70 | 1006.3 |
| 20260507142045 | 49 | 328 | 2.0 | 5.0 | 0.00 | 0.52 | 0.00 | 72 | 1006.4 |
| 20260507141555 | 49 | 331 | 2.0 | 4.0 | 0.00 | 0.52 | 0.00 | 75 | 1006.5 |
| 20260507141045 | 49 | 310 | 2.0 | 6.0 | 0.00 | 0.52 | 0.00 | 75 | 1006.4 |
| 20260507140545 | 48 | 319 | 2.0 | 6.0 | 0.00 | 0.52 | 0.00 | 75 | 1006.4 |
| 20260507140052 | 48 | 304 | 3.0 | 6.0 | 0.00 | 0.52 | 0.00 | 76 | 1006.5 |
| 20260507135545 | 48 | 322 | 2.0 | 7.0 | 0.00 | 0.52 | 0.00 | 77 | 1006.4 |
| 20260507135045 | 48 | 276 | 3.0 | 7.0 | 0.00 | 0.52 | 0.00 | 76 | 1006.4 |
| 20260507134555 | 48 | 313 | 3.0 | 11.0 | 0.00 | 0.52 | 0.00 | 76 | 1006.4 |
| 20260507134042 | 48 | 307 | 4.0 | 11.0 | 0.00 | 0.52 | 0.00 | 77 | 1006.5 |
| 20260507133543 | 48 | 284 | 6.0 | 11.0 | 0.00 | 0.52 | 0.00 | 76 | 1006.6 |
| 20260507133056 | 48 | 302 | 3.0 | 10.0 | 0.00 | 0.52 | 0.00 | 78 | 1006.6 |
| 20260507132541 | 48 | 331 | 5.0 | 9.0 | 0.00 | 0.52 | 0.00 | 79 | 1006.8 |
| 20260507132048 | 48 | 330 | 4.0 | 8.0 | 0.00 | 0.52 | 0.00 | 79 | 1006.7 |
| 20260507131602 | 48 | 292 | 4.0 | 11.0 | 0.00 | 0.52 | 0.00 | 79 | 1006.8 |
| 20260507131045 | 48 | 325 | 3.0 | 11.0 | 0.00 | 0.52 | 0.00 | 79 | 1006.7 |
| 20260507130544 | 48 | 320 | 6.0 | 11.0 | 0.00 | 0.52 | 0.00 | 79 | 1006.8 |
| 20260507130109 | 48 | 316 | 7.0 | 11.0 | 0.00 | 0.52 | 0.00 | 79 | 1006.8 |
| 20260507125545 | 48 | 341 | 4.0 | 9.0 | 0.00 | 0.52 | 0.00 | 79 | 1006.8 |
| 20260507125042 | 48 | 323 | 6.0 | 9.0 | 0.00 | 0.52 | 0.00 | 77 | 1006.8 |
| 20260507124554 | 49 | 323 | 4.0 | 9.0 | 0.00 | 0.52 | 0.00 | 78 | 1006.8 |
| 20260507124045 | 49 | 308 | 4.0 | 9.0 | 0.00 | 0.52 | 0.00 | 78 | 1006.6 |
| 20260507123545 | 48 | 0 | 0.0 | 4.0 | 0.00 | 0.52 | 0.00 | 82 | 1006.5 |
| 20260507123052 | 47 | 11 | 1.0 | 4.0 | 0.00 | 0.52 | 0.00 | 83 | 1006.6 |
| 20260507122545 | 47 | 63 | 1.0 | 4.0 | 0.00 | 0.52 | 0.00 | 83 | 1006.5 |
| 20260507122042 | 47 | 324 | 0.0 | 3.0 | 0.00 | 0.52 | 0.00 | 85 | 1006.5 |
| 20260507121604 | 46 | 0 | 2.0 | 4.0 | 0.00 | 0.52 | 0.00 | 84 | 1006.5 |
| 20260507121044 | 46 | 347 | 1.0 | 4.0 | 0.00 | 0.52 | 0.00 | 86 | 1006.6 |
| 20260507120545 | 46 | 333 | 2.0 | 4.0 | 0.00 | 0.52 | 0.00 | 85 | 1006.7 |
| 20260507120100 | 46 | 329 | 2.0 | 4.0 | 0.00 | 0.52 | 0.00 | 87 | 1006.8 |
| 20260507115545 | 46 | 18 | 3.0 | 4.0 | 0.00 | 0.52 | 0.00 | 87 | 1006.8 |
| 20260507115045 | 45 | 300 | 1.0 | 4.0 | 0.00 | 0.52 | 0.00 | 89 | 1006.9 |
| 20260507114604 | 45 | 308 | 1.0 | 4.0 | 0.00 | 0.52 | 0.00 | 89 | 1006.8 |
| 20260507114045 | 44 | 321 | 2.0 | 4.0 | 0.00 | 0.52 | 0.00 | 89 | 1006.9 |
| 20260507113542 | 44 | 316 | 1.0 | 3.0 | 0.00 | 0.52 | 0.00 | 90 | 1006.8 |
| 20260507113052 | 44 | 352 | 1.0 | 3.0 | 0.00 | 0.52 | 0.00 | 90 | 1006.7 |
| 20260507112544 | 44 | 0 | 0.0 | 3.0 | 0.00 | 0.52 | 0.00 | 92 | 1006.7 |
| 20260507112041 | 43 | 38 | 1.0 | 3.0 | 0.00 | 0.52 | 0.00 | 92 | 1006.7 |
| 20260507111556 | 43 | 338 | 1.0 | 3.0 | 0.00 | 0.52 | 0.00 | 92 | 1006.6 |
| 20260507111041 | 43 | 308 | 0.0 | 3.0 | 0.00 | 0.52 | 0.00 | 92 | 1006.7 |
| 20260507110542 | 42 | 0 | 0.0 | 1.0 | 0.00 | 0.52 | 0.00 | 93 | 1006.7 |
| 20260507110054 | 42 | 297 | 0.0 | 1.0 | 0.00 | 0.52 | 0.00 | 94 | 1006.6 |
| 20260507105541 | 41 | 64 | 0.0 | 1.0 | 0.00 | 0.52 | 0.00 | 95 | 1006.7 |
| 20260507105042 | 41 | 0 | 0.0 | 1.0 | 0.00 | 0.52 | 0.00 | 95 | 1006.8 |
| 20260507104552 | 41 | 305 | 0.0 | 1.0 | 0.00 | 0.52 | 0.00 | 95 | 1006.8 |
| 20260507104041 | 41 | 0 | 0.0 | 1.0 | 0.00 | 0.52 | 0.00 | 95 | 1006.7 |
| 20260507103542 | 40 | 305 | 0.0 | 1.0 | 0.00 | 0.52 | 0.00 | 96 | 1006.5 |
| 20260507103047 | 40 | 0 | 0.0 | 0.0 | 0.00 | 0.52 | 0.00 | 96 | 1006.2 |
| 20260507102542 | 40 | 0 | 0.0 | 0.0 | 0.00 | 0.52 | 0.00 | 96 | 1006.2 |
| 20260507102042 | 40 | 0 | 0.0 | 0.0 | 0.00 | 0.52 | 0.00 | 96 | 1006.3 |
| 20260507101602 | 40 | 0 | 0.0 | 1.0 | 0.00 | 0.52 | 0.00 | 96 | 1006.4 |
| 20260507101041 | 40 | 0 | 0.0 | 1.0 | 0.00 | 0.52 | 0.00 | 95 | 1006.3 |
| 20260507100542 | 40 | 0 | 0.0 | 2.0 | 0.00 | 0.52 | 0.00 | 95 | 1006.4 |
| 20260507100053 | 41 | 0 | 0.0 | 2.0 | 0.00 | 0.52 | 0.00 | 96 | 1006.4 |
| 20260507095542 | 41 | 266 | 0.0 | 3.0 | 0.00 | 0.52 | 0.00 | 96 | 1006.4 |
| 20260507095041 | 41 | 329 | 0.0 | 3.0 | 0.00 | 0.52 | 0.00 | 96 | 1006.3 |
| 20260507094554 | 41 | 37 | 1.0 | 3.0 | 0.00 | 0.52 | 0.00 | 97 | 1006.3 |
| 20260507094041 | 41 | 0 | 0.0 | 2.0 | 0.00 | 0.52 | 0.00 | 97 | 1006.4 |
| 20260507093543 | 41 | 0 | 0.0 | 2.0 | 0.00 | 0.52 | 0.00 | 97 | 1006.6 |
| 20260507093056 | 41 | 61 | 0.0 | 4.0 | 0.00 | 0.52 | 0.00 | 97 | 1006.8 |
| 20260507092542 | 41 | 333 | 1.0 | 4.0 | 0.00 | 0.52 | 0.00 | 97 | 1006.7 |
| 20260507092042 | 41 | 303 | 0.0 | 3.0 | 0.00 | 0.52 | 0.00 | 97 | 1006.5 |
| 20260507091552 | 41 | 0 | 0.0 | 4.0 | 0.00 | 0.52 | 0.00 | 97 | 1006.4 |
| 20260507091045 | 41 | 328 | 0.0 | 4.0 | 0.00 | 0.52 | 0.00 | 97 | 1006.2 |
| 20260507090542 | 41 | 0 | 1.0 | 4.0 | 0.00 | 0.52 | 0.00 | 97 | 1006.4 |
| 20260507090052 | 41 | 306 | 2.0 | 4.0 | 0.00 | 0.52 | 0.00 | 97 | 1006.4 |
| 20260507085542 | 41 | 25 | 0.0 | 4.0 | 0.00 | 0.52 | 0.00 | 97 | 1006.4 |
| 20260507085042 | 41 | 6 | 1.0 | 5.0 | 0.00 | 0.52 | 0.00 | 97 | 1006.7 |
| 20260507084555 | 41 | 326 | 2.0 | 5.0 | 0.00 | 0.52 | 0.00 | 97 | 1006.5 |
| 20260507084044 | 41 | 0 | 1.0 | 5.0 | 0.00 | 0.52 | 0.00 | 97 | 1006.2 |
| 20260507083542 | 41 | 341 | 1.0 | 5.0 | 0.00 | 0.52 | 0.00 | 97 | 1006.1 |
| 20260507083052 | 42 | 0 | 1.0 | 5.0 | 0.00 | 0.52 | 0.00 | 97 | 1006.1 |
| 20260507082544 | 42 | 0 | 0.0 | 2.0 | 0.00 | 0.52 | 0.00 | 97 | 1005.9 |
| 20260507082049 | 42 | 0 | 0.0 | 2.0 | 0.00 | 0.52 | 0.00 | 97 | 1006.1 |
| 20260507081603 | 42 | 0 | 0.0 | 1.0 | 0.00 | 0.52 | 0.00 | 97 | 1006.3 |
| 20260507081045 | 42 | 0 | 0.0 | 1.0 | 0.00 | 0.52 | 0.00 | 97 | 1006.2 |
| 20260507080548 | 42 | 0 | 0.0 | 1.0 | 0.00 | 0.52 | 0.00 | 97 | 1006.2 |
| 20260507080100 | 42 | 89 | 0.0 | 0.0 | 0.00 | 0.52 | 0.00 | 97 | 1006.1 |
| 20260507075545 | 42 | 0 | 0.0 | 1.0 | 0.00 | 0.52 | 0.00 | 97 | 1006.4 |
| 20260507075045 | 42 | 0 | 0.0 | 2.0 | 0.00 | 0.52 | 0.00 | 97 | 1006.2 |
| 20260507074601 | 42 | 0 | 0.0 | 3.0 | 0.00 | 0.52 | 0.00 | 97 | 1006.0 |
| 20260507074045 | 43 | 0 | 0.0 | 3.0 | 0.00 | 0.52 | 0.00 | 97 | 1005.9 |
| 20260507073549 | 43 | 27 | 1.0 | 6.0 | 0.00 | 0.52 | 0.00 | 97 | 1005.7 |
| 20260507073050 | 43 | 0 | 1.0 | 7.0 | 0.00 | 0.52 | 0.00 | 97 | 1005.6 |
| 20260507072545 | 43 | 301 | 2.0 | 7.0 | 0.00 | 0.52 | 0.00 | 97 | 1005.5 |
| 20260507072042 | 43 | 310 | 3.0 | 6.0 | 0.00 | 0.52 | 0.00 | 97 | 1005.4 |
| 20260507071556 | 43 | 294 | 1.0 | 6.0 | 0.00 | 0.52 | 0.00 | 97 | 1005.5 |
| 20260507071043 | 43 | 321 | 3.0 | 9.0 | 0.00 | 0.52 | 0.00 | 97 | 1005.6 |
| 20260507070546 | 43 | 321 | 4.0 | 9.0 | 0.00 | 0.52 | 0.00 | 97 | 1005.4 |
| 20260507070054 | 43 | 269 | 2.0 | 5.0 | 0.00 | 0.52 | 0.00 | 97 | 1005.6 |
| 20260507065545 | 43 | 312 | 2.0 | 8.0 | 0.00 | 0.52 | 0.00 | 97 | 1005.7 |
| 20260507065045 | 43 | 322 | 3.0 | 8.0 | 0.00 | 0.52 | 0.00 | 97 | 1005.8 |
| 20260507064551 | 43 | 279 | 3.0 | 7.0 | 0.00 | 0.52 | 0.00 | 97 | 1005.6 |
| 20260507064042 | 43 | 313 | 3.0 | 9.0 | 0.00 | 0.52 | 0.00 | 97 | 1005.5 |
| 20260507063547 | 43 | 320 | 3.0 | 11.0 | 0.00 | 0.52 | 0.00 | 97 | 1005.7 |
| 20260507063058 | 43 | 301 | 5.0 | 11.0 | 0.00 | 0.52 | 0.00 | 97 | 1005.8 |
| 20260507062545 | 43 | 323 | 6.0 | 11.0 | 0.00 | 0.52 | 0.00 | 97 | 1005.6 |
| 20260507062048 | 43 | 350 | 7.0 | 12.0 | 0.00 | 0.52 | 0.00 | 97 | 1005.3 |
| 20260507061552 | 43 | 304 | 6.0 | 12.0 | 0.00 | 0.52 | 0.00 | 97 | 1005.6 |
| 20260507061044 | 43 | 321 | 6.0 | 11.0 | 0.00 | 0.52 | 0.00 | 97 | 1005.6 |
| 20260507060545 | 44 | 318 | 4.0 | 8.0 | 0.00 | 0.52 | 0.00 | 98 | 1005.8 |
| 20260507060050 | 44 | 71 | 1.0 | 3.0 | 0.00 | 0.52 | 0.00 | 98 | 1005.7 |
| 20260507055546 | 44 | 333 | 1.0 | 2.0 | 0.00 | 0.52 | 0.00 | 98 | 1005.9 |
| 20260507055049 | 44 | 0 | 0.0 | 2.0 | 0.00 | 0.52 | 0.00 | 98 | 1005.8 |
| 20260507054633 | 44 | 0 | 0.0 | 3.0 | 0.00 | 0.52 | 0.00 | 97 | 1005.7 |
| 20260507054046 | 44 | 302 | 1.0 | 5.0 | 0.00 | 0.52 | 0.00 | 97 | 1005.6 |
| 20260507053550 | 44 | 289 | 1.0 | 5.0 | 0.00 | 0.52 | 0.00 | 97 | 1005.6 |
| 20260507053053 | 44 | 9 | 2.0 | 4.0 | 0.00 | 0.52 | 0.00 | 97 | 1005.9 |
| 20260507052545 | 44 | 295 | 0.0 | 3.0 | 0.00 | 0.52 | 0.00 | 97 | 1005.9 |
| 20260507052046 | 44 | 254 | 1.0 | 3.0 | 0.00 | 0.52 | 0.00 | 97 | 1005.9 |
| 20260507051552 | 44 | 0 | 0.0 | 4.0 | 0.00 | 0.52 | 0.00 | 97 | 1005.8 |
| 20260507051050 | 44 | 122 | 0.0 | 7.0 | 0.00 | 0.52 | 0.00 | 97 | 1005.7 |
| 20260507050545 | 44 | 298 | 0.0 | 7.0 | 0.00 | 0.52 | 0.00 | 97 | 1005.8 |
| 20260507050059 | 44 | 321 | 1.0 | 5.0 | 0.00 | 0.52 | 0.00 | 97 | 1005.6 |
| 20260507045545 | 44 | 316 | 2.0 | 5.0 | 0.00 | 0.52 | 0.00 | 97 | 1005.7 |
| 20260507045045 | 44 | 335 | 0.0 | 4.0 | 0.00 | 0.52 | 0.00 | 97 | 1005.6 |
| 20260507044553 | 44 | 297 | 1.0 | 4.0 | 0.00 | 0.52 | 0.00 | 97 | 1005.5 |
| 20260507044048 | 44 | 0 | 0.0 | 2.0 | 0.00 | 0.52 | 0.00 | 97 | 1005.5 |
| 20260507043545 | 44 | 0 | 0.0 | 2.0 | 0.00 | 0.52 | 0.00 | 97 | 1005.5 |
| 20260507043049 | 44 | 290 | 0.0 | 6.0 | 0.00 | 0.52 | 0.00 | 97 | 1005.2 |
| 20260507042545 | 44 | 40 | 1.0 | 6.0 | 0.00 | 0.52 | 0.00 | 97 | 1005.3 |
| 20260507042046 | 44 | 331 | 2.0 | 9.0 | 0.00 | 0.52 | 0.00 | 97 | 1005.2 |
| 20260507041601 | 44 | 336 | 4.0 | 9.0 | 0.01 | 0.52 | 0.00 | 97 | 1005.1 |
| 20260507041046 | 44 | 316 | 4.0 | 9.0 | 0.01 | 0.52 | 0.00 | 97 | 1005.0 |
| 20260507040546 | 44 | 310 | 3.0 | 8.0 | 0.01 | 0.52 | 0.00 | 97 | 1005.0 |
| 20260507040054 | 45 | 354 | 4.0 | 9.0 | 0.02 | 0.52 | 0.00 | 97 | 1005.2 |
| 20260507035545 | 45 | 341 | 5.0 | 9.0 | 0.02 | 0.52 | 0.52 | 97 | 1005.3 |
| 20260507035045 | 45 | 303 | 4.0 | 8.0 | 0.02 | 0.52 | 0.52 | 97 | 1005.4 |
| 20260507034557 | 45 | 311 | 4.0 | 10.0 | 0.02 | 0.52 | 0.52 | 97 | 1005.5 |
| 20260507034045 | 45 | 272 | 4.0 | 10.0 | 0.02 | 0.52 | 0.52 | 97 | 1005.8 |
| 20260507033549 | 45 | 311 | 4.0 | 9.0 | 0.02 | 0.52 | 0.52 | 97 | 1005.6 |
| 20260507033056 | 45 | 309 | 4.0 | 9.0 | 0.02 | 0.52 | 0.52 | 97 | 1005.6 |
| 20260507032544 | 45 | 310 | 3.0 | 11.0 | 0.02 | 0.52 | 0.52 | 97 | 1005.6 |
| 20260507032048 | 45 | 27 | 4.0 | 11.0 | 0.02 | 0.52 | 0.52 | 97 | 1005.3 |
| 20260507031606 | 45 | 11 | 3.0 | 7.0 | 0.01 | 0.51 | 0.51 | 97 | 1005.1 |
| 20260507031048 | 45 | 51 | 1.0 | 6.0 | 0.02 | 0.51 | 0.51 | 97 | 1005.1 |
| 20260507030546 | 45 | 311 | 1.0 | 7.0 | 0.02 | 0.51 | 0.51 | 97 | 1005.3 |
| 20260507030056 | 45 | 290 | 3.0 | 7.0 | 0.01 | 0.50 | 0.50 | 97 | 1005.1 |
| 20260507025545 | 45 | 319 | 3.0 | 9.0 | 0.01 | 0.50 | 0.50 | 97 | 1005.3 |
| 20260507025045 | 45 | 332 | 2.0 | 11.0 | 0.01 | 0.50 | 0.50 | 97 | 1005.5 |
| 20260507024554 | 45 | 294 | 5.0 | 11.0 | 0.01 | 0.50 | 0.50 | 97 | 1005.4 |
| 20260507024044 | 45 | 284 | 4.0 | 10.0 | 0.01 | 0.50 | 0.50 | 97 | 1005.3 |
| 20260507023545 | 45 | 305 | 4.0 | 8.0 | 0.01 | 0.50 | 0.50 | 97 | 1005.4 |
| 20260507023103 | 45 | 330 | 2.0 | 8.0 | 0.02 | 0.50 | 0.50 | 97 | 1005.4 |
| 20260507022546 | 45 | 312 | 1.0 | 10.0 | 0.02 | 0.50 | 0.50 | 97 | 1005.3 |
| 20260507022044 | 46 | 357 | 1.0 | 10.0 | 0.03 | 0.50 | 0.50 | 97 | 1005.3 |
| 20260507021554 | 46 | 321 | 1.0 | 8.0 | 0.03 | 0.50 | 0.50 | 97 | 1005.4 |
| 20260507021041 | 46 | 0 | 2.0 | 8.0 | 0.02 | 0.49 | 0.49 | 97 | 1005.2 |
| 20260507020544 | 46 | 3 | 4.0 | 8.0 | 0.03 | 0.49 | 0.49 | 97 | 1005.3 |
| 20260507020100 | 46 | 335 | 1.0 | 10.0 | 0.03 | 0.49 | 0.49 | 97 | 1005.2 |
| 20260507015541 | 46 | 275 | 4.0 | 10.0 | 0.03 | 0.49 | 0.49 | 97 | 1005.3 |
| 20260507015041 | 47 | 290 | 5.0 | 10.0 | 0.03 | 0.49 | 0.49 | 97 | 1005.1 |
| 20260507014600 | 47 | 337 | 1.0 | 6.0 | 0.03 | 0.49 | 0.49 | 97 | 1005.3 |
| 20260507014043 | 47 | 0 | 1.0 | 10.0 | 0.03 | 0.49 | 0.49 | 96 | 1005.1 |
| 20260507013541 | 47 | 359 | 3.0 | 10.0 | 0.03 | 0.49 | 0.49 | 96 | 1005.1 |
| 20260507013050 | 47 | 327 | 5.0 | 10.0 | 0.02 | 0.48 | 0.48 | 96 | 1005.1 |
| 20260507012542 | 48 | 298 | 3.0 | 9.0 | 0.02 | 0.48 | 0.48 | 96 | 1004.9 |
| 20260507012042 | 48 | 41 | 4.0 | 15.0 | 0.01 | 0.47 | 0.47 | 96 | 1004.6 |
| 20260507011552 | 48 | 302 | 5.0 | 15.0 | 0.01 | 0.47 | 0.47 | 96 | 1004.7 |
| 20260507011042 | 48 | 297 | 4.0 | 10.0 | 0.01 | 0.47 | 0.47 | 96 | 1004.6 |
| 20260507010542 | 49 | 335 | 4.0 | 10.0 | 0.00 | 0.46 | 0.46 | 96 | 1004.5 |
| 20260507010057 | 49 | 310 | 5.0 | 10.0 | 0.00 | 0.46 | 0.46 | 96 | 1004.7 |
| 20260507005542 | 49 | 320 | 5.0 | 10.0 | 0.00 | 0.46 | 0.46 | 96 | 1004.5 |
| 20260507005041 | 49 | 329 | 4.0 | 9.0 | 0.00 | 0.46 | 0.46 | 96 | 1004.5 |
| 20260507004556 | 50 | 314 | 3.0 | 9.0 | 0.00 | 0.46 | 0.46 | 96 | 1004.5 |
| 20260507004041 | 50 | 329 | 3.0 | 9.0 | 0.00 | 0.46 | 0.46 | 96 | 1004.4 |
| 20260507003546 | 50 | 306 | 4.0 | 10.0 | 0.00 | 0.46 | 0.46 | 96 | 1004.4 |
| 20260507003057 | 50 | 324 | 4.0 | 10.0 | 0.00 | 0.46 | 0.46 | 96 | 1004.2 |
| 20260507002541 | 50 | 309 | 4.0 | 9.0 | 0.00 | 0.46 | 0.46 | 96 | 1004.2 |
| 20260507002042 | 51 | 1 | 3.0 | 8.0 | 0.00 | 0.46 | 0.46 | 96 | 1004.1 |
| 20260507001602 | 51 | 356 | 3.0 | 9.0 | 0.00 | 0.46 | 0.46 | 96 | 1003.9 |
| 20260507001041 | 51 | 310 | 3.0 | 9.0 | 0.00 | 0.46 | 0.46 | 96 | 1003.8 |
| 20260507000547 | 51 | 343 | 3.0 | 8.0 | 0.00 | 0.46 | 0.46 | 96 | 1003.9 |
| 20260507000055 | 51 | 60 | 3.0 | 6.0 | 0.01 | 0.46 | 0.46 | 96 | 1003.9 |
| 20260506235542 | 52 | 2 | 2.0 | 6.0 | 0.01 | 0.46 | 0.46 | 96 | 1003.8 |
| 20260506235043 | 52 | 311 | 2.0 | 6.0 | 0.01 | 0.46 | 0.46 | 96 | 1003.7 |
| 20260506234556 | 52 | 31 | 3.0 | 6.0 | 0.01 | 0.46 | 0.46 | 96 | 1003.5 |
| 20260506234041 | 52 | 32 | 3.0 | 7.0 | 0.01 | 0.46 | 0.46 | 96 | 1003.4 |
| 20260506233542 | 53 | 305 | 2.0 | 7.0 | 0.01 | 0.46 | 0.46 | 96 | 1003.5 |
| 20260506233109 | 53 | 321 | 3.0 | 7.0 | 0.01 | 0.46 | 0.46 | 96 | 1003.3 |
| 20260506232542 | 54 | 13 | 3.0 | 10.0 | 0.01 | 0.46 | 0.46 | 96 | 1003.4 |
| 20260506232043 | 54 | 309 | 5.0 | 11.0 | 0.02 | 0.46 | 0.46 | 96 | 1003.3 |
| 20260506231552 | 55 | 350 | 5.0 | 11.0 | 0.02 | 0.46 | 0.46 | 96 | 1003.3 |
| 20260506231041 | 55 | 296 | 5.0 | 10.0 | 0.02 | 0.46 | 0.46 | 96 | 1003.2 |
| 20260506230540 | 56 | 303 | 5.0 | 10.0 | 0.02 | 0.46 | 0.46 | 95 | 1003.1 |
| 20260506230059 | 57 | 333 | 6.0 | 10.0 | 0.02 | 0.45 | 0.45 | 96 | 1003.1 |
| 20260506225541 | 59 | 278 | 2.0 | 6.0 | 0.02 | 0.45 | 0.45 | 97 | 1003.0 |
| 20260506225040 | 59 | 324 | 1.0 | 3.0 | 0.03 | 0.45 | 0.45 | 97 | 1002.9 |
| 20260506224552 | 59 | 0 | 0.0 | 1.0 | 0.03 | 0.45 | 0.45 | 97 | 1002.8 |
| 20260506224043 | 59 | 0 | 0.0 | 1.0 | 0.05 | 0.45 | 0.45 | 97 | 1002.7 |
| 20260506223543 | 59 | 0 | 0.0 | 0.0 | 0.05 | 0.45 | 0.45 | 97 | 1002.9 |
| 20260506223053 | 59 | 0 | 0.0 | 1.0 | 0.06 | 0.45 | 0.45 | 97 | 1002.9 |
| 20260506222542 | 59 | 0 | 0.0 | 2.0 | 0.07 | 0.45 | 0.45 | 97 | 1002.8 |
| 20260506222041 | 60 | 145 | 0.0 | 2.0 | 0.07 | 0.44 | 0.44 | 97 | 1002.8 |
| 20260506221558 | 60 | 145 | 0.0 | 2.0 | 0.09 | 0.44 | 0.44 | 97 | 1002.7 |
| 20260506221041 | 60 | 0 | 0.0 | 3.0 | 0.09 | 0.44 | 0.44 | 97 | 1002.8 |
| 20260506220543 | 59 | 38 | 0.0 | 3.0 | 0.09 | 0.44 | 0.44 | 97 | 1002.9 |
| 20260506220054 | 59 | 0 | 0.0 | 2.0 | 0.08 | 0.43 | 0.43 | 97 | 1002.8 |
| 20260506215544 | 59 | 0 | 0.0 | 3.0 | 0.09 | 0.46 | 0.43 | 97 | 1002.9 |
| 20260506215044 | 60 | 77 | 0.0 | 3.0 | 0.09 | 0.45 | 0.42 | 97 | 1002.9 |
| 20260506214552 | 59 | 66 | 0.0 | 1.0 | 0.08 | 0.44 | 0.41 | 97 | 1002.9 |
| 20260506214041 | 59 | 114 | 0.0 | 1.0 | 0.08 | 0.43 | 0.40 | 97 | 1002.9 |
| 20260506213543 | 59 | 0 | 0.0 | 6.0 | 0.08 | 0.43 | 0.40 | 97 | 1002.9 |
| 20260506213111 | 59 | 0 | 0.0 | 6.0 | 0.09 | 0.42 | 0.39 | 96 | 1003.1 |
| 20260506212544 | 59 | 61 | 1.0 | 6.0 | 0.10 | 0.41 | 0.38 | 96 | 1003.0 |
| 20260506212041 | 59 | 148 | 0.0 | 5.0 | 0.11 | 0.40 | 0.37 | 96 | 1003.0 |
| 20260506211548 | 59 | 149 | 1.0 | 5.0 | 0.09 | 0.38 | 0.35 | 96 | 1003.1 |
| 20260506211043 | 60 | 142 | 1.0 | 5.0 | 0.10 | 0.38 | 0.35 | 97 | 1003.1 |
| 20260506210544 | 59 | 0 | 1.0 | 6.0 | 0.11 | 0.38 | 0.35 | 96 | 1003.1 |
| 20260506210056 | 59 | 171 | 0.0 | 6.0 | 0.11 | 0.38 | 0.35 | 96 | 1003.2 |
| 20260506205544 | 59 | 155 | 1.0 | 3.0 | 0.10 | 0.37 | 0.34 | 96 | 1003.3 |
| 20260506205041 | 59 | 135 | 0.0 | 4.0 | 0.09 | 0.36 | 0.33 | 96 | 1003.4 |
| 20260506204551 | 59 | 146 | 1.0 | 4.0 | 0.10 | 0.36 | 0.33 | 96 | 1003.4 |
| 20260506204041 | 59 | 157 | 0.0 | 4.0 | 0.09 | 0.35 | 0.32 | 96 | 1003.4 |
| 20260506203541 | 59 | 0 | 0.0 | 4.0 | 0.10 | 0.35 | 0.32 | 96 | 1003.5 |
| 20260506203055 | 59 | 0 | 1.0 | 4.0 | 0.09 | 0.33 | 0.30 | 96 | 1003.5 |
| 20260506202545 | 60 | 128 | 0.0 | 4.0 | 0.06 | 0.30 | 0.27 | 96 | 1003.5 |
| 20260506202044 | 60 | 0 | 0.0 | 4.0 | 0.06 | 0.29 | 0.26 | 96 | 1003.6 |
| 20260506201553 | 60 | 157 | 1.0 | 5.0 | 0.07 | 0.29 | 0.26 | 96 | 1003.5 |
| 20260506201044 | 60 | 148 | 2.0 | 5.0 | 0.06 | 0.28 | 0.25 | 96 | 1003.6 |
| 20260506200544 | 60 | 128 | 1.0 | 6.0 | 0.05 | 0.27 | 0.24 | 96 | 1003.7 |
| 20260506200052 | 60 | 46 | 1.0 | 6.0 | 0.06 | 0.27 | 0.24 | 96 | 1003.6 |
| 20260506195543 | 60 | 139 | 1.0 | 4.0 | 0.06 | 0.27 | 0.24 | 96 | 1003.8 |
| 20260506195041 | 60 | 132 | 1.0 | 4.0 | 0.07 | 0.27 | 0.24 | 96 | 1003.8 |
| 20260506194555 | 60 | 0 | 1.0 | 4.0 | 0.06 | 0.26 | 0.23 | 96 | 1003.8 |
| 20260506194043 | 60 | 135 | 0.0 | 4.0 | 0.07 | 0.26 | 0.23 | 96 | 1003.9 |
| 20260506193542 | 60 | 129 | 0.0 | 4.0 | 0.06 | 0.25 | 0.22 | 96 | 1004.0 |
| 20260506193103 | 59 | 70 | 1.0 | 4.0 | 0.06 | 0.24 | 0.21 | 96 | 1004.0 |
| 20260506192542 | 59 | 129 | 0.0 | 3.0 | 0.06 | 0.24 | 0.21 | 96 | 1004.0 |
| 20260506192043 | 59 | 117 | 1.0 | 7.0 | 0.06 | 0.23 | 0.20 | 96 | 1004.0 |
| 20260506191551 | 59 | 137 | 2.0 | 7.0 | 0.05 | 0.22 | 0.19 | 96 | 1004.1 |
| 20260506191044 | 60 | 0 | 0.0 | 6.0 | 0.06 | 0.22 | 0.19 | 96 | 1004.2 |
| 20260506190543 | 60 | 130 | 0.0 | 6.0 | 0.06 | 0.22 | 0.19 | 96 | 1004.3 |
| 20260506190057 | 59 | 172 | 1.0 | 6.0 | 0.06 | 0.21 | 0.18 | 96 | 1004.1 |
| 20260506185543 | 60 | 172 | 0.0 | 6.0 | 0.07 | 0.21 | 0.18 | 96 | 1004.1 |
| 20260506185042 | 59 | 153 | 2.0 | 6.0 | 0.07 | 0.20 | 0.17 | 96 | 1004.2 |
| 20260506184557 | 59 | 149 | 2.0 | 5.0 | 0.07 | 0.20 | 0.17 | 96 | 1004.4 |
| 20260506184042 | 60 | 169 | 0.0 | 6.0 | 0.07 | 0.19 | 0.16 | 96 | 1004.4 |
| 20260506183543 | 59 | 209 | 1.0 | 9.0 | 0.08 | 0.19 | 0.16 | 96 | 1004.4 |
| 20260506183053 | 59 | 144 | 1.0 | 9.0 | 0.08 | 0.18 | 0.15 | 96 | 1004.5 |
| 20260506182543 | 59 | 153 | 0.0 | 4.0 | 0.09 | 0.18 | 0.15 | 96 | 1004.4 |